sensor_id;sensor_type;location;lat;lon;timestamp;P1;durP1;ratioP1;P2;durP2;ratioP2
8337;SDS011;4206;48.634;9.516;2023-07-31T00:01:56;1.80;;;1.10;;
8337;SDS011;4206;48.634;9.516;2023-07-31T00:04:23;1.60;;;1.20;;
8337;SDS011;4206;48.634;9.516;2023-07-31T00:06:49;6.20;;;1.37;;
8337;SDS011;4206;48.634;9.516;2023-07-31T00:09:19;4.17;;;1.40;;
8337;SDS011;4206;48.634;9.516;2023-07-31T00:11:46;3.37;;;1.30;;
8337;SDS011;4206;48.634;9.516;2023-07-31T00:14:14;1.77;;;1.27;;
8337;SDS011;4206;48.634;9.516;2023-07-31T00:16:40;3.97;;;0.83;;
8337;SDS011;4206;48.634;9.516;2023-07-31T00:19:08;3.40;;;1.40;;
8337;SDS011;4206;48.634;9.516;2023-07-31T00:21:35;6.77;;;1.30;;
8337;SDS011;4206;48.634;9.516;2023-07-31T00:24:02;2.47;;;1.30;;
8337;SDS011;4206;48.634;9.516;2023-07-31T00:26:29;10.80;;;1.63;;
8337;SDS011;4206;48.634;9.516;2023-07-31T00:28:56;4.73;;;1.37;;
8337;SDS011;4206;48.634;9.516;2023-07-31T00:31:22;2.53;;;1.70;;
8337;SDS011;4206;48.634;9.516;2023-07-31T00:33:50;5.80;;;1.47;;
8337;SDS011;4206;48.634;9.516;2023-07-31T00:36:16;2.97;;;1.40;;
8337;SDS011;4206;48.634;9.516;2023-07-31T00:38:44;3.30;;;1.10;;
8337;SDS011;4206;48.634;9.516;2023-07-31T00:41:11;2.60;;;1.63;;
8337;SDS011;4206;48.634;9.516;2023-07-31T00:43:38;5.40;;;1.37;;
8337;SDS011;4206;48.634;9.516;2023-07-31T00:46:05;3.37;;;1.20;;
8337;SDS011;4206;48.634;9.516;2023-07-31T00:48:33;4.80;;;1.43;;
8337;SDS011;4206;48.634;9.516;2023-07-31T00:51:01;3.33;;;1.27;;
8337;SDS011;4206;48.634;9.516;2023-07-31T00:53:28;3.10;;;1.00;;
8337;SDS011;4206;48.634;9.516;2023-07-31T00:55:55;3.03;;;1.20;;
8337;SDS011;4206;48.634;9.516;2023-07-31T00:58:23;4.23;;;1.53;;
8337;SDS011;4206;48.634;9.516;2023-07-31T01:00:50;3.40;;;1.40;;
8337;SDS011;4206;48.634;9.516;2023-07-31T01:03:17;3.07;;;1.60;;
8337;SDS011;4206;48.634;9.516;2023-07-31T01:08:17;2.40;;;1.27;;
8337;SDS011;4206;48.634;9.516;2023-07-31T01:10:52;4.37;;;1.60;;
8337;SDS011;4206;48.634;9.516;2023-07-31T01:13:24;4.43;;;1.33;;
8337;SDS011;4206;48.634;9.516;2023-07-31T01:15:51;1.73;;;1.30;;
8337;SDS011;4206;48.634;9.516;2023-07-31T01:18:18;4.73;;;1.40;;
8337;SDS011;4206;48.634;9.516;2023-07-31T01:20:46;2.70;;;1.10;;
8337;SDS011;4206;48.634;9.516;2023-07-31T01:23:35;1.23;;;0.80;;
8337;SDS011;4206;48.634;9.516;2023-07-31T01:26:23;4.33;;;1.13;;
8337;SDS011;4206;48.634;9.516;2023-07-31T01:28:56;4.30;;;1.27;;
8337;SDS011;4206;48.634;9.516;2023-07-31T01:31:28;3.53;;;1.37;;
8337;SDS011;4206;48.634;9.516;2023-07-31T01:33:57;1.87;;;1.40;;
8337;SDS011;4206;48.634;9.516;2023-07-31T01:36:26;5.83;;;1.50;;
8337;SDS011;4206;48.634;9.516;2023-07-31T01:38:58;3.17;;;1.40;;
8337;SDS011;4206;48.634;9.516;2023-07-31T01:41:26;3.83;;;1.70;;
8337;SDS011;4206;48.634;9.516;2023-07-31T01:43:53;2.80;;;1.40;;
8337;SDS011;4206;48.634;9.516;2023-07-31T01:46:20;2.90;;;1.17;;
8337;SDS011;4206;48.634;9.516;2023-07-31T01:48:47;2.87;;;1.23;;
8337;SDS011;4206;48.634;9.516;2023-07-31T01:51:14;4.20;;;1.83;;
8337;SDS011;4206;48.634;9.516;2023-07-31T01:53:41;4.73;;;1.27;;
8337;SDS011;4206;48.634;9.516;2023-07-31T01:56:08;2.83;;;1.43;;
8337;SDS011;4206;48.634;9.516;2023-07-31T01:58:35;3.53;;;1.27;;
8337;SDS011;4206;48.634;9.516;2023-07-31T02:01:02;3.20;;;1.40;;
8337;SDS011;4206;48.634;9.516;2023-07-31T02:03:29;3.80;;;1.60;;
8337;SDS011;4206;48.634;9.516;2023-07-31T02:05:56;1.57;;;1.33;;
8337;SDS011;4206;48.634;9.516;2023-07-31T02:08:23;3.70;;;1.50;;
8337;SDS011;4206;48.634;9.516;2023-07-31T02:10:51;2.47;;;1.50;;
8337;SDS011;4206;48.634;9.516;2023-07-31T02:13:18;2.20;;;1.30;;
8337;SDS011;4206;48.634;9.516;2023-07-31T02:15:45;3.03;;;1.57;;
8337;SDS011;4206;48.634;9.516;2023-07-31T02:18:12;3.93;;;1.70;;
8337;SDS011;4206;48.634;9.516;2023-07-31T02:20:39;4.70;;;1.23;;
8337;SDS011;4206;48.634;9.516;2023-07-31T02:23:06;2.17;;;1.03;;
8337;SDS011;4206;48.634;9.516;2023-07-31T02:25:33;3.20;;;1.53;;
8337;SDS011;4206;48.634;9.516;2023-07-31T02:27:59;2.63;;;1.47;;
8337;SDS011;4206;48.634;9.516;2023-07-31T02:30:26;3.17;;;1.33;;
8337;SDS011;4206;48.634;9.516;2023-07-31T02:32:53;1.60;;;1.27;;
8337;SDS011;4206;48.634;9.516;2023-07-31T02:35:20;4.27;;;1.67;;
8337;SDS011;4206;48.634;9.516;2023-07-31T02:37:47;3.67;;;1.50;;
8337;SDS011;4206;48.634;9.516;2023-07-31T02:40:14;5.77;;;1.70;;
8337;SDS011;4206;48.634;9.516;2023-07-31T02:42:41;7.03;;;1.30;;
8337;SDS011;4206;48.634;9.516;2023-07-31T02:45:08;4.90;;;1.73;;
8337;SDS011;4206;48.634;9.516;2023-07-31T02:47:35;3.13;;;1.13;;
8337;SDS011;4206;48.634;9.516;2023-07-31T02:50:02;1.80;;;1.00;;
8337;SDS011;4206;48.634;9.516;2023-07-31T02:52:32;3.07;;;1.47;;
8337;SDS011;4206;48.634;9.516;2023-07-31T02:54:59;2.10;;;1.20;;
8337;SDS011;4206;48.634;9.516;2023-07-31T02:57:26;6.97;;;1.43;;
8337;SDS011;4206;48.634;9.516;2023-07-31T02:59:53;4.17;;;1.20;;
8337;SDS011;4206;48.634;9.516;2023-07-31T03:02:20;3.50;;;1.33;;
8337;SDS011;4206;48.634;9.516;2023-07-31T03:04:47;6.03;;;1.43;;
8337;SDS011;4206;48.634;9.516;2023-07-31T03:07:14;5.10;;;1.30;;
8337;SDS011;4206;48.634;9.516;2023-07-31T03:09:41;10.83;;;2.00;;
8337;SDS011;4206;48.634;9.516;2023-07-31T03:12:08;4.17;;;1.70;;
8337;SDS011;4206;48.634;9.516;2023-07-31T03:14:35;6.03;;;1.90;;
8337;SDS011;4206;48.634;9.516;2023-07-31T03:17:02;5.23;;;1.50;;
8337;SDS011;4206;48.634;9.516;2023-07-31T03:19:31;2.83;;;1.53;;
8337;SDS011;4206;48.634;9.516;2023-07-31T03:21:58;3.87;;;1.43;;
8337;SDS011;4206;48.634;9.516;2023-07-31T03:24:26;6.20;;;1.60;;
8337;SDS011;4206;48.634;9.516;2023-07-31T03:26:54;1.90;;;1.63;;
8337;SDS011;4206;48.634;9.516;2023-07-31T03:29:21;3.13;;;1.50;;
8337;SDS011;4206;48.634;9.516;2023-07-31T03:31:50;5.50;;;1.50;;
8337;SDS011;4206;48.634;9.516;2023-07-31T03:34:17;3.30;;;1.40;;
8337;SDS011;4206;48.634;9.516;2023-07-31T03:36:44;4.27;;;1.17;;
8337;SDS011;4206;48.634;9.516;2023-07-31T03:39:11;4.70;;;2.00;;
8337;SDS011;4206;48.634;9.516;2023-07-31T03:41:37;4.87;;;1.67;;
8337;SDS011;4206;48.634;9.516;2023-07-31T03:44:04;3.10;;;1.93;;
8337;SDS011;4206;48.634;9.516;2023-07-31T03:46:31;2.43;;;1.60;;
8337;SDS011;4206;48.634;9.516;2023-07-31T03:49:00;2.40;;;1.97;;
8337;SDS011;4206;48.634;9.516;2023-07-31T03:51:26;1.50;;;1.13;;
8337;SDS011;4206;48.634;9.516;2023-07-31T03:53:53;5.23;;;1.50;;
8337;SDS011;4206;48.634;9.516;2023-07-31T03:56:20;1.60;;;1.20;;
8337;SDS011;4206;48.634;9.516;2023-07-31T03:58:47;2.50;;;1.30;;
8337;SDS011;4206;48.634;9.516;2023-07-31T04:01:14;2.60;;;1.67;;
8337;SDS011;4206;48.634;9.516;2023-07-31T04:03:41;4.70;;;1.40;;
8337;SDS011;4206;48.634;9.516;2023-07-31T04:06:08;3.60;;;1.40;;
8337;SDS011;4206;48.634;9.516;2023-07-31T04:08:36;4.57;;;1.67;;
8337;SDS011;4206;48.634;9.516;2023-07-31T04:11:02;7.90;;;1.53;;
8337;SDS011;4206;48.634;9.516;2023-07-31T04:13:29;3.17;;;1.40;;
8337;SDS011;4206;48.634;9.516;2023-07-31T04:15:56;4.00;;;2.10;;
8337;SDS011;4206;48.634;9.516;2023-07-31T04:18:24;4.60;;;2.17;;
8337;SDS011;4206;48.634;9.516;2023-07-31T04:20:52;2.03;;;1.50;;
8337;SDS011;4206;48.634;9.516;2023-07-31T04:23:18;3.17;;;2.10;;
8337;SDS011;4206;48.634;9.516;2023-07-31T04:25:45;2.50;;;1.90;;
8337;SDS011;4206;48.634;9.516;2023-07-31T04:28:12;2.83;;;1.90;;
8337;SDS011;4206;48.634;9.516;2023-07-31T04:30:39;5.33;;;1.73;;
8337;SDS011;4206;48.634;9.516;2023-07-31T04:33:06;5.73;;;1.70;;
8337;SDS011;4206;48.634;9.516;2023-07-31T04:35:33;3.07;;;1.40;;
8337;SDS011;4206;48.634;9.516;2023-07-31T04:38:00;6.63;;;1.90;;
8337;SDS011;4206;48.634;9.516;2023-07-31T04:40:27;4.30;;;2.00;;
8337;SDS011;4206;48.634;9.516;2023-07-31T04:42:54;3.47;;;1.93;;
8337;SDS011;4206;48.634;9.516;2023-07-31T04:45:21;2.33;;;1.67;;
8337;SDS011;4206;48.634;9.516;2023-07-31T04:47:48;6.00;;;1.50;;
8337;SDS011;4206;48.634;9.516;2023-07-31T04:50:15;4.50;;;1.50;;
8337;SDS011;4206;48.634;9.516;2023-07-31T04:52:42;4.40;;;2.10;;
8337;SDS011;4206;48.634;9.516;2023-07-31T04:55:08;2.97;;;1.90;;
8337;SDS011;4206;48.634;9.516;2023-07-31T04:57:35;7.20;;;1.70;;
8337;SDS011;4206;48.634;9.516;2023-07-31T05:00:02;3.40;;;1.90;;
8337;SDS011;4206;48.634;9.516;2023-07-31T05:02:29;2.97;;;2.00;;
8337;SDS011;4206;48.634;9.516;2023-07-31T05:04:56;2.87;;;1.70;;
8337;SDS011;4206;48.634;9.516;2023-07-31T05:07:23;3.20;;;1.67;;
8337;SDS011;4206;48.634;9.516;2023-07-31T05:09:50;2.30;;;1.70;;
8337;SDS011;4206;48.634;9.516;2023-07-31T05:12:17;3.23;;;1.50;;
8337;SDS011;4206;48.634;9.516;2023-07-31T05:14:47;4.93;;;1.70;;
8337;SDS011;4206;48.634;9.516;2023-07-31T05:17:14;2.97;;;1.80;;
8337;SDS011;4206;48.634;9.516;2023-07-31T05:19:41;4.00;;;2.10;;
8337;SDS011;4206;48.634;9.516;2023-07-31T05:22:08;3.20;;;1.53;;
8337;SDS011;4206;48.634;9.516;2023-07-31T05:24:35;3.23;;;1.50;;
8337;SDS011;4206;48.634;9.516;2023-07-31T05:27:02;4.93;;;1.60;;
8337;SDS011;4206;48.634;9.516;2023-07-31T05:29:29;6.13;;;1.80;;
8337;SDS011;4206;48.634;9.516;2023-07-31T05:31:56;2.60;;;1.50;;
8337;SDS011;4206;48.634;9.516;2023-07-31T05:34:23;1.60;;;1.40;;
8337;SDS011;4206;48.634;9.516;2023-07-31T05:36:50;5.63;;;1.70;;
8337;SDS011;4206;48.634;9.516;2023-07-31T05:39:17;2.00;;;1.47;;
8337;SDS011;4206;48.634;9.516;2023-07-31T05:41:45;3.00;;;0.90;;
8337;SDS011;4206;48.634;9.516;2023-07-31T05:44:12;2.47;;;1.30;;
8337;SDS011;4206;48.634;9.516;2023-07-31T05:46:39;2.73;;;1.10;;
8337;SDS011;4206;48.634;9.516;2023-07-31T05:49:07;9.93;;;1.37;;
8337;SDS011;4206;48.634;9.516;2023-07-31T05:51:33;3.90;;;1.20;;
8337;SDS011;4206;48.634;9.516;2023-07-31T05:54:00;6.83;;;1.80;;
8337;SDS011;4206;48.634;9.516;2023-07-31T05:56:27;5.73;;;2.00;;
8337;SDS011;4206;48.634;9.516;2023-07-31T05:58:54;2.80;;;1.20;;
8337;SDS011;4206;48.634;9.516;2023-07-31T06:01:21;5.63;;;1.57;;
8337;SDS011;4206;48.634;9.516;2023-07-31T06:03:48;7.67;;;1.10;;
8337;SDS011;4206;48.634;9.516;2023-07-31T06:06:15;3.77;;;1.43;;
8337;SDS011;4206;48.634;9.516;2023-07-31T06:08:42;2.50;;;1.57;;
8337;SDS011;4206;48.634;9.516;2023-07-31T06:11:09;5.10;;;1.60;;
8337;SDS011;4206;48.634;9.516;2023-07-31T06:13:36;9.07;;;1.90;;
8337;SDS011;4206;48.634;9.516;2023-07-31T06:16:03;3.83;;;1.73;;
8337;SDS011;4206;48.634;9.516;2023-07-31T06:18:32;4.40;;;1.40;;
8337;SDS011;4206;48.634;9.516;2023-07-31T06:20:59;2.93;;;1.40;;
8337;SDS011;4206;48.634;9.516;2023-07-31T06:23:26;4.20;;;1.60;;
8337;SDS011;4206;48.634;9.516;2023-07-31T06:25:53;2.90;;;1.57;;
8337;SDS011;4206;48.634;9.516;2023-07-31T06:28:20;4.77;;;1.70;;
8337;SDS011;4206;48.634;9.516;2023-07-31T06:30:53;4.47;;;1.60;;
8337;SDS011;4206;48.634;9.516;2023-07-31T06:33:20;3.50;;;1.30;;
8337;SDS011;4206;48.634;9.516;2023-07-31T06:35:47;4.20;;;1.80;;
8337;SDS011;4206;48.634;9.516;2023-07-31T06:38:14;3.40;;;1.50;;
8337;SDS011;4206;48.634;9.516;2023-07-31T06:40:40;2.63;;;1.37;;
8337;SDS011;4206;48.634;9.516;2023-07-31T06:43:07;2.67;;;1.50;;
8337;SDS011;4206;48.634;9.516;2023-07-31T06:45:34;6.00;;;1.60;;
8337;SDS011;4206;48.634;9.516;2023-07-31T06:48:02;2.83;;;1.77;;
8337;SDS011;4206;48.634;9.516;2023-07-31T06:50:31;3.73;;;1.67;;
8337;SDS011;4206;48.634;9.516;2023-07-31T06:52:58;5.30;;;2.53;;
8337;SDS011;4206;48.634;9.516;2023-07-31T06:55:25;5.80;;;2.63;;
8337;SDS011;4206;48.634;9.516;2023-07-31T06:57:54;2.83;;;1.57;;
8337;SDS011;4206;48.634;9.516;2023-07-31T07:00:22;5.67;;;1.53;;
8337;SDS011;4206;48.634;9.516;2023-07-31T07:02:49;6.10;;;1.60;;
8337;SDS011;4206;48.634;9.516;2023-07-31T07:05:17;2.37;;;1.13;;
8337;SDS011;4206;48.634;9.516;2023-07-31T07:07:44;3.90;;;1.40;;
8337;SDS011;4206;48.634;9.516;2023-07-31T07:10:11;3.17;;;1.30;;
8337;SDS011;4206;48.634;9.516;2023-07-31T07:12:38;5.60;;;1.33;;
8337;SDS011;4206;48.634;9.516;2023-07-31T07:15:05;2.63;;;1.40;;
8337;SDS011;4206;48.634;9.516;2023-07-31T07:17:32;5.93;;;1.43;;
8337;SDS011;4206;48.634;9.516;2023-07-31T07:19:59;2.47;;;1.20;;
8337;SDS011;4206;48.634;9.516;2023-07-31T07:22:27;5.37;;;1.43;;
8337;SDS011;4206;48.634;9.516;2023-07-31T07:24:54;2.23;;;1.20;;
8337;SDS011;4206;48.634;9.516;2023-07-31T07:27:21;4.13;;;1.20;;
8337;SDS011;4206;48.634;9.516;2023-07-31T07:29:49;4.30;;;1.30;;
8337;SDS011;4206;48.634;9.516;2023-07-31T07:32:19;5.77;;;1.20;;
8337;SDS011;4206;48.634;9.516;2023-07-31T07:34:47;2.07;;;1.07;;
8337;SDS011;4206;48.634;9.516;2023-07-31T07:37:15;3.70;;;1.27;;
8337;SDS011;4206;48.634;9.516;2023-07-31T07:39:42;3.90;;;1.27;;
8337;SDS011;4206;48.634;9.516;2023-07-31T07:42:09;8.70;;;1.87;;
8337;SDS011;4206;48.634;9.516;2023-07-31T07:44:36;2.50;;;1.20;;
8337;SDS011;4206;48.634;9.516;2023-07-31T07:47:03;7.83;;;2.30;;
8337;SDS011;4206;48.634;9.516;2023-07-31T07:49:33;3.40;;;1.30;;
8337;SDS011;4206;48.634;9.516;2023-07-31T07:52:01;2.83;;;1.47;;
8337;SDS011;4206;48.634;9.516;2023-07-31T07:54:29;4.20;;;1.57;;
8337;SDS011;4206;48.634;9.516;2023-07-31T07:56:57;4.70;;;1.80;;
8337;SDS011;4206;48.634;9.516;2023-07-31T07:59:24;4.37;;;1.57;;
8337;SDS011;4206;48.634;9.516;2023-07-31T08:01:51;7.87;;;1.90;;
8337;SDS011;4206;48.634;9.516;2023-07-31T08:04:18;2.93;;;1.50;;
8337;SDS011;4206;48.634;9.516;2023-07-31T08:06:45;3.13;;;1.27;;
8337;SDS011;4206;48.634;9.516;2023-07-31T08:09:11;2.30;;;1.20;;
8337;SDS011;4206;48.634;9.516;2023-07-31T08:11:38;7.23;;;1.47;;
8337;SDS011;4206;48.634;9.516;2023-07-31T08:14:05;3.63;;;1.47;;
8337;SDS011;4206;48.634;9.516;2023-07-31T08:16:32;7.57;;;2.17;;
8337;SDS011;4206;48.634;9.516;2023-07-31T08:18:59;2.60;;;1.30;;
8337;SDS011;4206;48.634;9.516;2023-07-31T08:21:26;2.63;;;1.70;;
8337;SDS011;4206;48.634;9.516;2023-07-31T08:23:53;5.50;;;2.30;;
8337;SDS011;4206;48.634;9.516;2023-07-31T08:26:20;4.20;;;1.43;;
8337;SDS011;4206;48.634;9.516;2023-07-31T08:28:47;4.93;;;1.30;;
8337;SDS011;4206;48.634;9.516;2023-07-31T08:31:16;4.30;;;1.70;;
8337;SDS011;4206;48.634;9.516;2023-07-31T08:33:44;6.00;;;1.93;;
8337;SDS011;4206;48.634;9.516;2023-07-31T08:36:11;1.77;;;1.27;;
8337;SDS011;4206;48.634;9.516;2023-07-31T08:38:38;2.27;;;1.47;;
8337;SDS011;4206;48.634;9.516;2023-07-31T08:41:05;4.00;;;1.53;;
8337;SDS011;4206;48.634;9.516;2023-07-31T08:43:32;5.20;;;2.07;;
8337;SDS011;4206;48.634;9.516;2023-07-31T08:46:02;4.67;;;1.40;;
8337;SDS011;4206;48.634;9.516;2023-07-31T08:48:30;6.93;;;1.57;;
8337;SDS011;4206;48.634;9.516;2023-07-31T08:50:58;5.03;;;1.60;;
8337;SDS011;4206;48.634;9.516;2023-07-31T08:53:25;4.03;;;1.67;;
8337;SDS011;4206;48.634;9.516;2023-07-31T08:55:55;3.20;;;1.77;;
8337;SDS011;4206;48.634;9.516;2023-07-31T08:58:24;2.50;;;1.63;;
8337;SDS011;4206;48.634;9.516;2023-07-31T09:00:53;5.30;;;1.67;;
8337;SDS011;4206;48.634;9.516;2023-07-31T09:03:22;4.27;;;1.90;;
8337;SDS011;4206;48.634;9.516;2023-07-31T09:05:51;4.17;;;1.60;;
8337;SDS011;4206;48.634;9.516;2023-07-31T09:08:21;4.63;;;1.70;;
8337;SDS011;4206;48.634;9.516;2023-07-31T09:10:48;6.20;;;2.00;;
8337;SDS011;4206;48.634;9.516;2023-07-31T09:13:16;2.57;;;1.40;;
8337;SDS011;4206;48.634;9.516;2023-07-31T09:15:44;5.00;;;1.83;;
8337;SDS011;4206;48.634;9.516;2023-07-31T09:18:12;3.27;;;1.70;;
8337;SDS011;4206;48.634;9.516;2023-07-31T09:20:43;2.73;;;1.67;;
8337;SDS011;4206;48.634;9.516;2023-07-31T09:23:12;4.57;;;1.50;;
8337;SDS011;4206;48.634;9.516;2023-07-31T09:25:43;5.20;;;2.17;;
8337;SDS011;4206;48.634;9.516;2023-07-31T09:28:10;5.47;;;1.90;;
8337;SDS011;4206;48.634;9.516;2023-07-31T09:33:21;4.50;;;2.20;;
8337;SDS011;4206;48.634;9.516;2023-07-31T09:35:47;3.80;;;1.90;;
8337;SDS011;4206;48.634;9.516;2023-07-31T09:38:15;3.03;;;1.53;;
8337;SDS011;4206;48.634;9.516;2023-07-31T09:40:44;3.37;;;2.10;;
8337;SDS011;4206;48.634;9.516;2023-07-31T09:43:13;6.30;;;2.43;;
8337;SDS011;4206;48.634;9.516;2023-07-31T09:45:46;2.73;;;1.63;;
8337;SDS011;4206;48.634;9.516;2023-07-31T09:48:15;6.77;;;2.50;;
8337;SDS011;4206;48.634;9.516;2023-07-31T09:50:44;5.93;;;2.40;;
8337;SDS011;4206;48.634;9.516;2023-07-31T09:53:13;4.00;;;2.27;;
8337;SDS011;4206;48.634;9.516;2023-07-31T09:55:41;5.43;;;1.80;;
8337;SDS011;4206;48.634;9.516;2023-07-31T09:58:10;2.70;;;2.13;;
8337;SDS011;4206;48.634;9.516;2023-07-31T10:00:38;4.33;;;2.30;;
8337;SDS011;4206;48.634;9.516;2023-07-31T10:03:07;4.40;;;1.70;;
8337;SDS011;4206;48.634;9.516;2023-07-31T10:05:45;7.50;;;2.30;;
8337;SDS011;4206;48.634;9.516;2023-07-31T10:08:16;4.40;;;2.13;;
8337;SDS011;4206;48.634;9.516;2023-07-31T10:10:46;6.47;;;2.20;;
8337;SDS011;4206;48.634;9.516;2023-07-31T10:13:13;6.47;;;2.20;;
8337;SDS011;4206;48.634;9.516;2023-07-31T10:15:41;4.77;;;1.83;;
8337;SDS011;4206;48.634;9.516;2023-07-31T10:18:10;6.90;;;1.73;;
8337;SDS011;4206;48.634;9.516;2023-07-31T10:20:37;5.00;;;2.00;;
8337;SDS011;4206;48.634;9.516;2023-07-31T10:23:04;4.80;;;2.13;;
8337;SDS011;4206;48.634;9.516;2023-07-31T10:25:33;4.90;;;1.90;;
8337;SDS011;4206;48.634;9.516;2023-07-31T10:28:01;8.97;;;2.50;;
8337;SDS011;4206;48.634;9.516;2023-07-31T10:30:29;3.70;;;1.60;;
8337;SDS011;4206;48.634;9.516;2023-07-31T10:32:58;4.33;;;1.83;;
8337;SDS011;4206;48.634;9.516;2023-07-31T10:35:25;2.67;;;1.77;;
8337;SDS011;4206;48.634;9.516;2023-07-31T10:37:53;3.20;;;1.73;;
8337;SDS011;4206;48.634;9.516;2023-07-31T10:40:27;3.70;;;1.90;;
8337;SDS011;4206;48.634;9.516;2023-07-31T10:42:55;3.17;;;1.67;;
8337;SDS011;4206;48.634;9.516;2023-07-31T10:48:02;4.30;;;2.03;;
8337;SDS011;4206;48.634;9.516;2023-07-31T10:50:31;3.50;;;1.93;;
8337;SDS011;4206;48.634;9.516;2023-07-31T10:53:02;2.73;;;1.70;;
8337;SDS011;4206;48.634;9.516;2023-07-31T10:55:32;5.67;;;2.47;;
8337;SDS011;4206;48.634;9.516;2023-07-31T11:00:44;5.00;;;2.10;;
8337;SDS011;4206;48.634;9.516;2023-07-31T11:03:19;7.23;;;1.97;;
8337;SDS011;4206;48.634;9.516;2023-07-31T11:05:50;4.33;;;1.80;;
8337;SDS011;4206;48.634;9.516;2023-07-31T11:10:49;3.43;;;1.90;;
8337;SDS011;4206;48.634;9.516;2023-07-31T11:13:18;4.37;;;2.57;;
8337;SDS011;4206;48.634;9.516;2023-07-31T11:15:44;3.87;;;2.80;;
8337;SDS011;4206;48.634;9.516;2023-07-31T11:18:11;7.13;;;2.03;;
8337;SDS011;4206;48.634;9.516;2023-07-31T11:20:38;4.50;;;2.43;;
8337;SDS011;4206;48.634;9.516;2023-07-31T11:23:06;5.50;;;2.87;;
8337;SDS011;4206;48.634;9.516;2023-07-31T11:25:35;5.63;;;3.23;;
8337;SDS011;4206;48.634;9.516;2023-07-31T11:28:04;3.13;;;1.70;;
8337;SDS011;4206;48.634;9.516;2023-07-31T11:30:32;3.03;;;1.93;;
8337;SDS011;4206;48.634;9.516;2023-07-31T11:33:02;2.47;;;1.50;;
8337;SDS011;4206;48.634;9.516;2023-07-31T11:35:31;5.37;;;2.10;;
8337;SDS011;4206;48.634;9.516;2023-07-31T11:37:58;3.27;;;1.97;;
8337;SDS011;4206;48.634;9.516;2023-07-31T11:40:26;7.10;;;2.47;;
8337;SDS011;4206;48.634;9.516;2023-07-31T11:42:58;3.50;;;1.90;;
8337;SDS011;4206;48.634;9.516;2023-07-31T11:45:30;2.23;;;1.73;;
8337;SDS011;4206;48.634;9.516;2023-07-31T11:47:59;3.77;;;2.00;;
8337;SDS011;4206;48.634;9.516;2023-07-31T11:50:26;4.00;;;1.97;;
8337;SDS011;4206;48.634;9.516;2023-07-31T11:52:56;4.37;;;1.90;;
8337;SDS011;4206;48.634;9.516;2023-07-31T11:55:25;6.57;;;2.57;;
8337;SDS011;4206;48.634;9.516;2023-07-31T11:57:55;5.73;;;2.00;;
8337;SDS011;4206;48.634;9.516;2023-07-31T12:00:24;5.60;;;2.30;;
8337;SDS011;4206;48.634;9.516;2023-07-31T12:02:52;8.83;;;2.03;;
8337;SDS011;4206;48.634;9.516;2023-07-31T12:05:19;4.00;;;1.77;;
8337;SDS011;4206;48.634;9.516;2023-07-31T12:07:49;2.40;;;1.77;;
8337;SDS011;4206;48.634;9.516;2023-07-31T12:10:27;5.57;;;2.20;;
8337;SDS011;4206;48.634;9.516;2023-07-31T12:12:56;3.50;;;2.00;;
8337;SDS011;4206;48.634;9.516;2023-07-31T12:15:29;3.23;;;1.80;;
8337;SDS011;4206;48.634;9.516;2023-07-31T12:18:00;4.23;;;2.03;;
8337;SDS011;4206;48.634;9.516;2023-07-31T12:20:30;4.47;;;1.80;;
8337;SDS011;4206;48.634;9.516;2023-07-31T12:22:58;7.33;;;2.47;;
8337;SDS011;4206;48.634;9.516;2023-07-31T12:25:29;2.67;;;1.60;;
8337;SDS011;4206;48.634;9.516;2023-07-31T12:27:57;5.03;;;2.50;;
8337;SDS011;4206;48.634;9.516;2023-07-31T12:30:32;4.87;;;2.10;;
8337;SDS011;4206;48.634;9.516;2023-07-31T12:35:45;5.47;;;1.80;;
8337;SDS011;4206;48.634;9.516;2023-07-31T12:38:13;3.23;;;1.80;;
8337;SDS011;4206;48.634;9.516;2023-07-31T12:40:40;4.03;;;1.90;;
8337;SDS011;4206;48.634;9.516;2023-07-31T12:43:08;5.37;;;2.60;;
8337;SDS011;4206;48.634;9.516;2023-07-31T12:45:35;3.60;;;1.80;;
8337;SDS011;4206;48.634;9.516;2023-07-31T12:48:02;3.17;;;1.90;;
8337;SDS011;4206;48.634;9.516;2023-07-31T12:50:29;3.00;;;1.90;;
8337;SDS011;4206;48.634;9.516;2023-07-31T12:52:57;5.70;;;1.90;;
8337;SDS011;4206;48.634;9.516;2023-07-31T12:55:24;3.77;;;1.80;;
8337;SDS011;4206;48.634;9.516;2023-07-31T12:57:51;3.77;;;2.20;;
8337;SDS011;4206;48.634;9.516;2023-07-31T13:00:20;5.70;;;2.10;;
8337;SDS011;4206;48.634;9.516;2023-07-31T13:02:47;3.43;;;2.27;;
8337;SDS011;4206;48.634;9.516;2023-07-31T13:05:15;4.53;;;2.33;;
8337;SDS011;4206;48.634;9.516;2023-07-31T13:07:42;3.90;;;2.50;;
8337;SDS011;4206;48.634;9.516;2023-07-31T13:10:09;5.27;;;2.13;;
8337;SDS011;4206;48.634;9.516;2023-07-31T13:12:36;5.50;;;2.40;;
8337;SDS011;4206;48.634;9.516;2023-07-31T13:15:04;4.87;;;2.00;;
8337;SDS011;4206;48.634;9.516;2023-07-31T13:17:32;6.43;;;2.23;;
8337;SDS011;4206;48.634;9.516;2023-07-31T13:19:59;3.47;;;2.30;;
8337;SDS011;4206;48.634;9.516;2023-07-31T13:22:26;6.23;;;2.50;;
8337;SDS011;4206;48.634;9.516;2023-07-31T13:24:53;7.90;;;2.53;;
8337;SDS011;4206;48.634;9.516;2023-07-31T13:27:20;5.13;;;2.40;;
8337;SDS011;4206;48.634;9.516;2023-07-31T13:29:48;8.53;;;2.77;;
8337;SDS011;4206;48.634;9.516;2023-07-31T13:32:15;4.90;;;2.37;;
8337;SDS011;4206;48.634;9.516;2023-07-31T13:34:43;7.03;;;2.53;;
8337;SDS011;4206;48.634;9.516;2023-07-31T13:37:10;3.80;;;2.20;;
8337;SDS011;4206;48.634;9.516;2023-07-31T13:39:37;4.50;;;2.57;;
8337;SDS011;4206;48.634;9.516;2023-07-31T13:42:05;4.10;;;2.77;;
8337;SDS011;4206;48.634;9.516;2023-07-31T13:44:34;8.17;;;2.60;;
8337;SDS011;4206;48.634;9.516;2023-07-31T13:47:01;4.60;;;2.53;;
8337;SDS011;4206;48.634;9.516;2023-07-31T13:49:29;5.43;;;1.83;;
8337;SDS011;4206;48.634;9.516;2023-07-31T13:51:57;4.97;;;2.53;;
8337;SDS011;4206;48.634;9.516;2023-07-31T13:54:24;5.00;;;2.30;;
8337;SDS011;4206;48.634;9.516;2023-07-31T13:56:56;5.00;;;2.77;;
8337;SDS011;4206;48.634;9.516;2023-07-31T13:59:23;9.13;;;2.70;;
8337;SDS011;4206;48.634;9.516;2023-07-31T14:01:50;14.23;;;3.23;;
8337;SDS011;4206;48.634;9.516;2023-07-31T14:04:17;7.40;;;2.00;;
8337;SDS011;4206;48.634;9.516;2023-07-31T14:06:44;5.63;;;2.73;;
8337;SDS011;4206;48.634;9.516;2023-07-31T14:09:11;3.70;;;2.40;;
8337;SDS011;4206;48.634;9.516;2023-07-31T14:11:38;4.27;;;2.10;;
8337;SDS011;4206;48.634;9.516;2023-07-31T14:14:08;47.33;;;4.63;;
8337;SDS011;4206;48.634;9.516;2023-07-31T14:16:36;7.50;;;2.30;;
8337;SDS011;4206;48.634;9.516;2023-07-31T14:19:04;4.80;;;2.03;;
8337;SDS011;4206;48.634;9.516;2023-07-31T14:21:51;4.37;;;2.33;;
8337;SDS011;4206;48.634;9.516;2023-07-31T14:24:35;4.30;;;2.40;;
8337;SDS011;4206;48.634;9.516;2023-07-31T14:27:02;5.73;;;2.60;;
8337;SDS011;4206;48.634;9.516;2023-07-31T14:29:29;25.33;;;4.07;;
8337;SDS011;4206;48.634;9.516;2023-07-31T14:31:56;9.30;;;2.97;;
8337;SDS011;4206;48.634;9.516;2023-07-31T14:34:23;11.17;;;2.20;;
8337;SDS011;4206;48.634;9.516;2023-07-31T14:36:50;23.57;;;2.93;;
8337;SDS011;4206;48.634;9.516;2023-07-31T14:39:17;4.60;;;2.90;;
8337;SDS011;4206;48.634;9.516;2023-07-31T14:41:44;10.60;;;3.27;;
8337;SDS011;4206;48.634;9.516;2023-07-31T14:44:12;5.30;;;1.90;;
8337;SDS011;4206;48.634;9.516;2023-07-31T14:46:39;5.77;;;2.67;;
8337;SDS011;4206;48.634;9.516;2023-07-31T14:49:06;14.10;;;2.90;;
8337;SDS011;4206;48.634;9.516;2023-07-31T14:51:33;12.73;;;2.70;;
8337;SDS011;4206;48.634;9.516;2023-07-31T14:54:00;10.23;;;2.97;;
8337;SDS011;4206;48.634;9.516;2023-07-31T14:56:27;8.90;;;2.87;;
8337;SDS011;4206;48.634;9.516;2023-07-31T14:58:54;16.23;;;2.77;;
8337;SDS011;4206;48.634;9.516;2023-07-31T15:01:21;3.87;;;2.27;;
8337;SDS011;4206;48.634;9.516;2023-07-31T15:03:48;3.90;;;1.90;;
8337;SDS011;4206;48.634;9.516;2023-07-31T15:06:15;3.57;;;2.53;;
8337;SDS011;4206;48.634;9.516;2023-07-31T15:08:42;5.33;;;3.03;;
8337;SDS011;4206;48.634;9.516;2023-07-31T15:11:09;6.47;;;2.03;;
8337;SDS011;4206;48.634;9.516;2023-07-31T15:13:36;4.00;;;2.20;;
8337;SDS011;4206;48.634;9.516;2023-07-31T15:16:03;2.90;;;2.10;;
8337;SDS011;4206;48.634;9.516;2023-07-31T15:18:30;3.20;;;1.90;;
8337;SDS011;4206;48.634;9.516;2023-07-31T15:20:57;4.60;;;2.33;;
8337;SDS011;4206;48.634;9.516;2023-07-31T15:23:24;3.90;;;2.23;;
8337;SDS011;4206;48.634;9.516;2023-07-31T15:25:52;5.07;;;2.23;;
8337;SDS011;4206;48.634;9.516;2023-07-31T15:28:19;3.33;;;2.20;;
8337;SDS011;4206;48.634;9.516;2023-07-31T15:30:46;3.77;;;2.50;;
8337;SDS011;4206;48.634;9.516;2023-07-31T15:33:15;5.87;;;2.33;;
8337;SDS011;4206;48.634;9.516;2023-07-31T15:35:42;3.47;;;2.47;;